Arbovale, West Virginia
Current Conditions -  °F | °C
As of 7:51 PM on Sunday 23 Nov 2014 (Local Time) from KEKN Reporting Station
Light Rain Light Rain  
Wind Chill: 56°   Ceiling: 7000
Heat Index: 56°   Visibility: 10mi
Dew Point: 48°   Wind: 16mph
Humidity: 75%   Direction: 170°S
Pressure: 29.76"   Gusts: 24mph
Location:  38.44°N, 79.82°W
Report Text: KEKN 240051Z AUTO 17014G21KT 10SM -RA SCT030 BKN070 OVC110 13/09 A2976 RMK AO2 RAB19 SLP090 P0000 T01330089 TSNO
Loading
Personal Weather Stations






























Interactive Weather Map New forecast layout! Learn more

10-Day Weather Forecast

Advertisements
Track Severe Weather on mobile